Briefing drone pour Gannat

Rechercher une autre localisation

Conditions de vol :


Nous sommes le : Dimanche 02 octobre 2022
Il est 06:33 UTC (08:33 LT)

Lever de soleil : 05:20 UTC (07:20 LT)
Coucher de soleil : 17:52 UTC (19:52 LT)

Météo

L'essentiel des conditions de vol

VIGILANCE MÉTÉO FRANCE - Allier (03)
Pas de vigilances particulieres
CARTE TEMSI
CARTES DES FRONTS
METAR de LFLV
LFLV 020630Z AUTO VRB03KT 9999 BKN026 BKN036 OVC240 15/14 Q1025

Date d'émission: 02/10/2022
Heure d'émission: 06:30 UTC
Vent: Variable 3 KT (6 km/h)
Visibilité horizontale: > 10 km
Plafond :
- Nuages morcelés à 2600ft (792m)
- Nuages morcelés à 3600ft (1097m)
- Couvert à 24000ft (7315m)
Température: 15 °C
Point de rosée: 14 °C
Humidité: 94%
Pression (QNH): 1025 hPa
Prévision 24h pour Vichy (10 km)
Vent : 185° pour 1 KT (4 km/h)
Temperature Maxi: 10 °C
Temperature Min: 10 °C
Humidité : 96%
Condition : Ciel dégagé



Warning: count(): Parameter must be an array or an object that implements Countable in /homepages/6/d509196549/htdocs/droneoxygene/briefing.php on line 743
WEBCAM POUR GANNAT

Réglementation

Voler en sécurité

CARTES AERONAUTIQUE 1/500.000
CARTE AZBA (Reseau basse altitude)
CARTES VAC (LFLV)
SUP AIP




Chargement des AIP...
NOTAM (GANNAT + Terrain à proximité / FIR )




Chargement des NOTAMS...
CONTACT PREFECTURE 03


Avertissement : Les données mises à disposition sont indicatives. Oxygène Drone ne pourra être tenu responsable de dégâts causés aux biens et aux personnes.